createdAt,value
2017-09-30T00:00:40.034Z,20.83
2017-09-30T00:03:08.282Z,23.30
2017-09-30T00:05:35.759Z,18.60
2017-09-30T00:08:03.300Z,19.63
2017-09-30T00:10:30.774Z,17.20
2017-09-30T00:12:58.216Z,19.37
2017-09-30T00:15:25.685Z,14.77
2017-09-30T00:17:53.133Z,17.77
2017-09-30T00:20:20.605Z,15.67
2017-09-30T00:22:48.825Z,18.07
2017-09-30T00:25:16.300Z,17.67
2017-09-30T00:27:43.757Z,16.70
2017-09-30T00:30:11.229Z,17.13
2017-09-30T00:32:38.694Z,20.07
2017-09-30T00:35:06.159Z,18.07
2017-09-30T00:37:33.617Z,18.80
2017-09-30T00:40:01.072Z,19.17
2017-09-30T00:42:29.313Z,20.43
2017-09-30T00:44:56.769Z,19.30
2017-09-30T00:47:24.237Z,19.27
2017-09-30T00:49:51.692Z,18.47
2017-09-30T00:52:19.163Z,18.13
2017-09-30T00:54:46.627Z,19.77
2017-09-30T00:57:14.097Z,18.10
2017-09-30T00:59:42.346Z,17.53
2017-09-30T01:02:09.823Z,16.63
2017-09-30T01:04:37.361Z,17.60
2017-09-30T01:07:04.821Z,19.73
2017-09-30T01:09:32.280Z,22.57
2017-09-30T01:12:00.553Z,17.87
2017-09-30T01:14:28.038Z,17.83
2017-09-30T01:16:56.273Z,17.13
2017-09-30T01:19:23.752Z,16.93
2017-09-30T01:21:51.209Z,18.33
2017-09-30T01:24:18.670Z,19.30
2017-09-30T01:26:46.129Z,18.13
2017-09-30T01:29:14.377Z,17.47
2017-09-30T01:31:41.937Z,18.90
2017-09-30T01:34:09.409Z,17.10
2017-09-30T01:36:36.955Z,15.77
2017-09-30T01:39:04.427Z,17.70
2017-09-30T01:41:31.969Z,16.27
2017-09-30T01:43:59.434Z,15.33
2017-09-30T01:46:26.893Z,17.70
2017-09-30T01:48:54.361Z,18.30
2017-09-30T01:51:21.900Z,16.70
2017-09-30T01:53:49.357Z,17.47
2017-09-30T01:56:16.827Z,19.60
2017-09-30T01:58:44.380Z,20.03
2017-09-30T02:01:14.677Z,18.70
2017-09-30T02:03:42.137Z,21.10
2017-09-30T02:06:09.597Z,19.90
2017-09-30T02:08:37.061Z,18.90
2017-09-30T02:11:04.621Z,17.53
2017-09-30T02:13:32.078Z,16.80
2017-09-30T02:15:59.555Z,15.80
2017-09-30T02:18:27.781Z,17.60
2017-09-30T02:20:59.217Z,18.10
2017-09-30T02:23:26.716Z,19.03
2017-09-30T02:25:54.189Z,16.60
2017-09-30T02:28:21.646Z,18.80
2017-09-30T02:30:49.185Z,14.77
2017-09-30T02:33:16.647Z,17.53
2017-09-30T02:35:44.311Z,17.90
2017-09-30T02:38:11.790Z,17.33
2017-09-30T02:40:39.237Z,19.10
2017-09-30T02:43:06.699Z,17.37
2017-09-30T02:45:34.154Z,18.33
2017-09-30T02:48:01.626Z,18.80
2017-09-30T02:50:29.853Z,27.03
2017-09-30T02:52:57.322Z,31.40
2017-09-30T02:55:24.789Z,29.97
2017-09-30T02:57:52.245Z,31.60
2017-09-30T03:00:19.700Z,30.03
2017-09-30T03:02:47.249Z,32.07
2017-09-30T03:05:14.717Z,32.10
2017-09-30T03:07:42.174Z,31.97
2017-09-30T03:10:09.645Z,33.20
2017-09-30T03:12:37.869Z,32.43
2017-09-30T03:15:05.447Z,31.03
2017-09-30T03:17:32.910Z,33.30
2017-09-30T03:20:00.374Z,32.67
2017-09-30T03:22:27.833Z,32.30
2017-09-30T03:24:55.296Z,33.97
2017-09-30T03:27:22.749Z,31.07
2017-09-30T03:29:50.227Z,32.40
2017-09-30T03:32:18.451Z,31.73
2017-09-30T03:34:45.913Z,31.63
2017-09-30T03:37:13.366Z,32.70
2017-09-30T03:39:40.940Z,36.87
2017-09-30T03:42:08.416Z,32.90
2017-09-30T03:44:35.869Z,33.67
2017-09-30T03:47:03.331Z,33.50
2017-09-30T03:49:30.784Z,34.70
2017-09-30T03:51:58.254Z,32.80
2017-09-30T03:54:26.485Z,34.77
2017-09-30T03:56:54.063Z,33.07
2017-09-30T03:59:21.513Z,31.90
2017-09-30T04:01:48.982Z,32.43
2017-09-30T04:04:16.443Z,33.60
2017-09-30T04:06:43.911Z,31.90
2017-09-30T04:09:12.129Z,32.10
2017-09-30T04:11:39.597Z,31.90
2017-09-30T04:14:07.057Z,36.43
2017-09-30T04:16:34.637Z,39.17
2017-09-30T04:19:02.094Z,32.17
2017-09-30T04:21:29.641Z,40.70
2017-09-30T04:23:57.207Z,24.63
2017-09-30T04:26:24.768Z,22.50
2017-09-30T04:28:52.221Z,19.37
2017-09-30T04:31:19.776Z,24.77
2017-09-30T04:33:47.352Z,23.33
2017-09-30T04:36:15.570Z,32.27
2017-09-30T04:38:43.039Z,28.67
2017-09-30T04:41:10.512Z,28.67
2017-09-30T04:43:38.287Z,26.73
2017-09-30T04:46:05.741Z,26.23
2017-09-30T04:48:33.214Z,27.83
2017-09-30T04:51:00.677Z,28.87
2017-09-30T04:53:28.945Z,28.60
2017-09-30T04:55:56.402Z,31.10
2017-09-30T04:58:23.865Z,33.23
2017-09-30T05:00:51.403Z,31.87
2017-09-30T05:03:18.967Z,30.20
2017-09-30T05:05:46.419Z,27.47
2017-09-30T05:08:13.982Z,22.80
2017-09-30T05:10:41.438Z,23.43
2017-09-30T05:13:08.886Z,24.00
2017-09-30T05:15:36.354Z,29.10
2017-09-30T05:18:03.813Z,25.27
2017-09-30T05:20:31.274Z,24.40
2017-09-30T05:22:58.730Z,23.67
2017-09-30T05:25:26.194Z,23.30
2017-09-30T05:27:53.746Z,20.40
2017-09-30T05:30:21.213Z,20.10
2017-09-30T05:32:48.675Z,26.97
2017-09-30T05:35:16.901Z,24.73
2017-09-30T05:37:44.366Z,24.67
2017-09-30T05:40:11.838Z,30.50
2017-09-30T05:42:39.285Z,30.63
2017-09-30T05:45:06.752Z,29.77
2017-09-30T05:47:34.211Z,30.43
2017-09-30T05:50:01.673Z,30.60
2017-09-30T05:52:29.124Z,32.37
2017-09-30T05:54:56.676Z,32.00
2017-09-30T05:57:24.142Z,32.57
2017-09-30T05:59:51.594Z,30.53
2017-09-30T06:02:19.058Z,30.70
2017-09-30T06:04:46.510Z,29.90
2017-09-30T06:07:13.973Z,27.07
2017-09-30T06:09:41.426Z,31.23
2017-09-30T06:12:08.985Z,30.77
2017-09-30T06:14:36.442Z,32.27
2017-09-30T06:17:03.917Z,33.73
2017-09-30T06:19:31.366Z,30.40
2017-09-30T06:21:58.834Z,29.07
2017-09-30T06:24:27.053Z,28.87
2017-09-30T06:26:54.539Z,28.33
2017-09-30T06:29:21.994Z,28.43
2017-09-30T06:31:49.458Z,29.63
2017-09-30T06:34:16.914Z,32.63
2017-09-30T06:36:44.394Z,31.10
2017-09-30T06:39:12.626Z,33.33
2017-09-30T06:41:40.078Z,29.57
2017-09-30T06:44:07.538Z,30.17
2017-09-30T06:46:35.006Z,32.20
2017-09-30T06:49:02.479Z,33.03
2017-09-30T06:51:29.942Z,29.87
2017-09-30T06:53:57.407Z,28.80
2017-09-30T06:56:25.634Z,29.80
2017-09-30T06:58:53.097Z,29.33
2017-09-30T07:01:20.560Z,31.13
2017-09-30T07:03:48.021Z,27.63
2017-09-30T07:06:15.479Z,27.27
2017-09-30T07:08:42.946Z,28.17
2017-09-30T07:11:10.504Z,29.93
2017-09-30T07:13:37.964Z,29.53
2017-09-30T07:16:05.431Z,31.87
2017-09-30T07:18:32.900Z,29.07
2017-09-30T07:21:01.166Z,29.60
2017-09-30T07:23:29.441Z,31.77
2017-09-30T07:25:56.882Z,31.27
2017-09-30T07:28:24.338Z,30.23
2017-09-30T07:30:51.897Z,29.30
2017-09-30T07:33:19.354Z,28.30
2017-09-30T07:35:46.825Z,29.27
2017-09-30T07:38:15.056Z,31.60
2017-09-30T07:40:42.526Z,30.10
2017-09-30T07:43:10.009Z,28.97
2017-09-30T07:45:37.475Z,27.53
2017-09-30T07:48:05.714Z,27.87
2017-09-30T07:50:33.182Z,29.80
2017-09-30T07:53:00.643Z,27.73
2017-09-30T07:55:28.097Z,28.80
2017-09-30T07:57:55.566Z,29.47
2017-09-30T08:00:23.109Z,27.97
2017-09-30T08:02:50.583Z,28.63
2017-09-30T08:05:18.050Z,28.10
2017-09-30T08:07:46.278Z,29.77
2017-09-30T08:10:13.758Z,30.47
2017-09-30T08:12:41.230Z,31.90
2017-09-30T08:15:09.454Z,30.30
2017-09-30T08:17:36.932Z,28.20
2017-09-30T08:20:04.709Z,26.90
2017-09-30T08:22:32.209Z,30.73
2017-09-30T08:25:00.418Z,24.10
2017-09-30T08:27:27.889Z,25.90
2017-09-30T08:29:55.337Z,25.30
2017-09-30T08:32:23.205Z,29.53
2017-09-30T08:34:50.662Z,28.33
2017-09-30T08:37:28.078Z,26.47
2017-09-30T08:39:55.534Z,25.40
2017-09-30T08:42:23.000Z,25.73
2017-09-30T08:44:51.244Z,24.40
2017-09-30T08:47:19.934Z,25.33
2017-09-30T08:49:47.389Z,24.00
2017-09-30T08:52:14.853Z,23.40
2017-09-30T08:54:42.318Z,19.87
2017-09-30T08:57:09.778Z,18.43
2017-09-30T08:59:37.245Z,21.20
2017-09-30T09:02:05.463Z,17.93
2017-09-30T09:04:32.978Z,17.90
2017-09-30T09:07:00.429Z,20.07
2017-09-30T09:09:28.669Z,18.30
2017-09-30T09:11:56.141Z,17.50
2017-09-30T09:14:23.606Z,13.07
2017-09-30T09:16:51.066Z,13.90
2017-09-30T09:19:18.615Z,13.90
2017-09-30T09:21:46.074Z,13.73
2017-09-30T09:24:13.542Z,12.67
2017-09-30T09:26:40.992Z,14.10
2017-09-30T09:29:08.455Z,14.60
2017-09-30T09:31:35.909Z,15.40
2017-09-30T09:34:04.963Z,15.87
2017-09-30T09:36:32.984Z,15.63
2017-09-30T09:39:01.277Z,15.20
2017-09-30T09:41:28.807Z,13.77
2017-09-30T09:43:57.933Z,15.77
2017-09-30T09:46:25.450Z,14.60
2017-09-30T09:48:52.992Z,15.00
2017-09-30T09:51:20.555Z,13.50
2017-09-30T09:53:48.016Z,14.23
2017-09-30T09:56:15.474Z,15.37
2017-09-30T09:58:43.753Z,13.40
2017-09-30T10:01:11.222Z,11.93
2017-09-30T10:03:38.672Z,11.60
2017-09-30T10:06:06.925Z,14.50
2017-09-30T10:08:34.377Z,13.77
2017-09-30T10:11:01.842Z,12.47
2017-09-30T10:13:29.297Z,13.10
2017-09-30T10:15:56.758Z,14.63
2017-09-30T10:18:25.310Z,14.07
2017-09-30T10:20:53.119Z,13.63
2017-09-30T10:23:20.565Z,13.90
2017-09-30T10:25:49.654Z,14.73
2017-09-30T10:28:17.125Z,13.70
2017-09-30T10:30:44.578Z,14.40
2017-09-30T10:33:12.049Z,11.43
2017-09-30T10:35:44.726Z,12.93
2017-09-30T10:38:12.184Z,12.17
2017-09-30T10:40:40.405Z,12.37
2017-09-30T10:43:07.869Z,12.40
2017-09-30T10:45:35.327Z,11.50
2017-09-30T10:48:02.806Z,11.87
2017-09-30T10:50:30.318Z,12.50
2017-09-30T10:52:58.638Z,10.87
2017-09-30T10:55:26.185Z,13.13
2017-09-30T10:57:53.638Z,10.90
2017-09-30T11:00:21.162Z,11.10
2017-09-30T11:02:48.715Z,11.40
2017-09-30T11:05:16.921Z,10.60
2017-09-30T11:07:44.403Z,12.40
2017-09-30T11:10:11.977Z,12.80
2017-09-30T11:12:39.436Z,10.00
2017-09-30T11:15:08.393Z,10.80
2017-09-30T11:17:35.874Z,9.93
2017-09-30T11:20:03.322Z,10.80
2017-09-30T11:22:30.777Z,10.37
2017-09-30T11:24:58.229Z,9.90
2017-09-30T11:27:26.405Z,10.47
2017-09-30T11:29:53.964Z,10.33
2017-09-30T11:32:21.418Z,10.90
2017-09-30T11:34:49.011Z,9.77
2017-09-30T11:37:17.230Z,9.67
2017-09-30T11:39:44.773Z,7.83
2017-09-30T11:42:12.973Z,7.80
2017-09-30T11:44:40.437Z,7.43
2017-09-30T11:47:07.934Z,7.57
2017-09-30T11:49:36.168Z,7.77
2017-09-30T11:52:03.616Z,7.57
2017-09-30T11:54:31.075Z,7.53
2017-09-30T11:56:58.542Z,8.73
2017-09-30T11:59:26.005Z,6.97
2017-09-30T12:01:53.459Z,7.93
2017-09-30T12:04:20.911Z,7.77
2017-09-30T12:06:48.474Z,7.73
2017-09-30T12:09:15.934Z,7.20
2017-09-30T12:11:43.393Z,7.50
2017-09-30T12:14:10.844Z,8.07
2017-09-30T12:16:38.390Z,7.50
2017-09-30T12:19:05.933Z,7.87
2017-09-30T12:21:33.425Z,6.87
2017-09-30T12:24:01.028Z,7.60
2017-09-30T12:26:28.518Z,7.10
2017-09-30T12:28:55.965Z,6.80
2017-09-30T12:31:23.451Z,7.03
2017-09-30T12:33:51.021Z,7.10
2017-09-30T12:36:18.483Z,7.03
2017-09-30T12:38:46.743Z,6.80
2017-09-30T12:41:14.301Z,7.07
2017-09-30T12:43:41.754Z,8.33
2017-09-30T12:46:09.209Z,5.90
2017-09-30T12:48:36.651Z,6.90
2017-09-30T12:51:04.117Z,7.90
2017-09-30T12:53:31.572Z,7.80
2017-09-30T12:55:59.041Z,8.33
2017-09-30T12:58:26.489Z,7.40
2017-09-30T13:00:53.941Z,7.70
2017-09-30T13:03:21.385Z,8.40
2017-09-30T13:05:48.837Z,7.93
2017-09-30T13:08:16.289Z,8.60
2017-09-30T13:10:43.786Z,8.93
2017-09-30T13:13:11.237Z,9.30
2017-09-30T13:15:38.682Z,8.53
2017-09-30T13:18:06.250Z,9.67
2017-09-30T13:20:33.810Z,9.20
2017-09-30T13:23:01.273Z,10.20
2017-09-30T13:25:28.743Z,11.00
2017-09-30T13:27:57.712Z,10.60
2017-09-30T13:30:25.161Z,12.10
2017-09-30T13:32:52.636Z,9.90
2017-09-30T13:35:20.090Z,9.93
2017-09-30T13:37:47.565Z,10.67
2017-09-30T13:40:15.017Z,11.97
2017-09-30T13:42:42.481Z,12.73
2017-09-30T13:45:10.018Z,12.40
2017-09-30T13:47:37.486Z,11.43
2017-09-30T13:50:06.447Z,12.20
2017-09-30T13:52:34.025Z,11.33
2017-09-30T13:55:01.472Z,12.07
2017-09-30T13:57:28.925Z,11.70
2017-09-30T13:59:56.398Z,13.20
2017-09-30T14:02:23.858Z,11.20
2017-09-30T14:04:51.400Z,10.27
2017-09-30T14:07:18.858Z,10.67
2017-09-30T14:09:46.313Z,11.30
2017-09-30T14:12:13.778Z,11.73
2017-09-30T14:14:41.260Z,9.67
2017-09-30T14:17:08.697Z,9.57
2017-09-30T14:19:37.305Z,9.03
2017-09-30T14:22:05.526Z,8.57
2017-09-30T14:24:32.993Z,10.47
2017-09-30T14:27:00.454Z,8.23
2017-09-30T14:29:27.934Z,7.40
2017-09-30T14:31:55.381Z,8.50
2017-09-30T14:34:22.851Z,8.17
2017-09-30T14:36:51.073Z,8.30
2017-09-30T14:39:18.663Z,8.40
2017-09-30T14:41:46.126Z,6.90
2017-09-30T14:44:13.579Z,6.50
2017-09-30T14:46:41.038Z,5.97
2017-09-30T14:49:10.001Z,5.90
2017-09-30T14:51:37.456Z,6.60
2017-09-30T14:54:05.006Z,6.13
2017-09-30T14:56:32.454Z,5.30
2017-09-30T14:59:00.024Z,6.17
2017-09-30T15:01:27.479Z,4.57
2017-09-30T15:03:54.964Z,5.40
2017-09-30T15:06:22.429Z,5.50
2017-09-30T15:08:49.887Z,5.50
2017-09-30T15:11:17.346Z,4.70
2017-09-30T15:13:44.806Z,4.50
2017-09-30T15:16:13.034Z,3.97
2017-09-30T15:18:40.532Z,5.73
2017-09-30T15:21:07.989Z,5.13
2017-09-30T15:23:35.432Z,5.23
2017-09-30T15:26:03.006Z,4.40
2017-09-30T15:28:30.462Z,3.73
2017-09-30T15:30:57.922Z,2.43
2017-09-30T15:33:25.382Z,2.50
2017-09-30T15:35:52.829Z,1.87
2017-09-30T15:38:20.290Z,1.80
2017-09-30T15:40:47.741Z,2.13
2017-09-30T15:43:15.288Z,1.93
2017-09-30T15:45:42.772Z,1.60
2017-09-30T15:48:10.225Z,1.83
2017-09-30T15:50:37.679Z,1.90
2017-09-30T15:53:05.231Z,2.40
2017-09-30T15:55:32.689Z,1.60
2017-09-30T15:58:00.240Z,1.50
2017-09-30T16:00:27.694Z,1.20
2017-09-30T16:02:55.153Z,1.50
2017-09-30T16:05:22.714Z,1.60
2017-09-30T16:07:50.174Z,1.70
2017-09-30T16:10:17.634Z,1.83
2017-09-30T16:12:45.077Z,2.10
2017-09-30T16:15:12.535Z,1.50
2017-09-30T16:17:39.989Z,8.13
2017-09-30T16:20:07.445Z,3.50
2017-09-30T16:22:34.898Z,1.90
2017-09-30T16:25:02.360Z,2.30
2017-09-30T16:27:29.822Z,2.00
2017-09-30T16:29:57.282Z,1.90
2017-09-30T16:32:24.730Z,1.60
2017-09-30T16:34:52.194Z,1.80
2017-09-30T16:37:19.757Z,1.27
2017-09-30T16:39:49.054Z,2.33
2017-09-30T16:42:17.880Z,1.83
2017-09-30T16:44:46.128Z,3.00
2017-09-30T16:47:13.578Z,3.77
2017-09-30T16:49:41.021Z,1.70
2017-09-30T16:52:08.481Z,1.40
2017-09-30T16:54:35.920Z,1.90
2017-09-30T16:57:03.387Z,1.60
2017-09-30T16:59:30.829Z,1.90
2017-09-30T17:01:58.304Z,2.00
2017-09-30T17:04:25.757Z,1.50
2017-09-30T17:06:53.218Z,1.27
2017-09-30T17:09:20.670Z,1.40
2017-09-30T17:11:48.124Z,3.43
2017-09-30T17:14:15.685Z,1.83
2017-09-30T17:16:43.141Z,1.50
2017-09-30T17:19:10.590Z,1.50
2017-09-30T17:21:38.045Z,1.40
2017-09-30T17:24:05.497Z,1.80
2017-09-30T17:26:32.952Z,1.60
2017-09-30T17:29:00.403Z,1.60
2017-09-30T17:31:27.880Z,1.70
2017-09-30T17:33:55.449Z,1.80
2017-09-30T17:36:23.001Z,1.63
2017-09-30T17:38:50.449Z,1.70
2017-09-30T17:41:17.913Z,3.17
2017-09-30T17:43:45.366Z,2.60
2017-09-30T17:46:12.856Z,2.10
2017-09-30T17:48:40.297Z,2.10
2017-09-30T17:51:07.838Z,1.97
2017-09-30T17:53:35.304Z,1.80
2017-09-30T17:56:02.859Z,2.00
2017-09-30T17:58:30.321Z,2.17
2017-09-30T18:00:57.773Z,1.87
2017-09-30T18:03:25.230Z,2.63
2017-09-30T18:05:52.681Z,1.60
2017-09-30T18:08:20.251Z,1.90
2017-09-30T18:10:47.695Z,1.77
2017-09-30T18:13:15.159Z,2.57
2017-09-30T18:15:42.619Z,2.03
2017-09-30T18:18:10.085Z,1.97
2017-09-30T18:20:37.535Z,2.73
2017-09-30T18:23:04.990Z,2.20
2017-09-30T18:25:32.533Z,2.10
2017-09-30T18:28:00.973Z,1.90
2017-09-30T18:30:28.425Z,2.43
2017-09-30T18:32:55.933Z,2.43
2017-09-30T18:35:23.385Z,1.93
2017-09-30T18:37:50.958Z,2.37
2017-09-30T18:40:18.426Z,2.00
2017-09-30T18:42:46.634Z,2.00
2017-09-30T18:45:14.095Z,2.17
2017-09-30T18:47:41.591Z,3.37
2017-09-30T18:50:09.054Z,2.50
2017-09-30T18:52:36.502Z,2.90
2017-09-30T18:55:03.986Z,2.73
2017-09-30T18:57:31.442Z,3.70
2017-09-30T18:59:58.897Z,3.87
2017-09-30T19:02:26.350Z,3.77
2017-09-30T19:04:53.940Z,2.90
2017-09-30T19:07:21.628Z,2.73
2017-09-30T19:09:50.205Z,2.53
2017-09-30T19:12:17.807Z,3.37
2017-09-30T19:14:46.030Z,2.90
2017-09-30T19:17:13.482Z,3.67
2017-09-30T19:19:40.942Z,3.50
2017-09-30T19:22:08.404Z,3.40
2017-09-30T19:24:35.873Z,3.13
2017-09-30T19:27:03.359Z,3.10
2017-09-30T19:29:30.810Z,3.03
2017-09-30T19:31:58.277Z,3.10
2017-09-30T19:34:25.730Z,2.70
2017-09-30T19:36:53.198Z,3.00
2017-09-30T19:39:20.646Z,4.07
2017-09-30T19:41:48.102Z,3.47
2017-09-30T19:44:16.322Z,4.03
2017-09-30T19:46:43.835Z,4.30
2017-09-30T19:49:11.293Z,4.13
2017-09-30T19:51:38.753Z,4.30
2017-09-30T19:54:06.204Z,5.13
2017-09-30T19:56:33.662Z,4.17
2017-09-30T19:59:01.198Z,4.13
2017-09-30T20:01:28.664Z,4.37
2017-09-30T20:03:56.114Z,4.03
2017-09-30T20:06:23.851Z,3.60
2017-09-30T20:08:51.354Z,4.90
2017-09-30T20:11:18.896Z,5.90
2017-09-30T20:13:46.353Z,5.13
2017-09-30T20:16:13.808Z,5.40
2017-09-30T20:18:46.254Z,4.70
2017-09-30T20:21:13.715Z,6.37
2017-09-30T20:23:41.168Z,6.00
2017-09-30T20:26:08.625Z,5.23
2017-09-30T20:28:36.087Z,6.30
2017-09-30T20:31:03.536Z,5.77
2017-09-30T20:33:30.998Z,5.87
2017-09-30T20:35:58.458Z,6.13
2017-09-30T20:38:25.913Z,5.93
2017-09-30T20:40:53.393Z,6.80
2017-09-30T20:43:20.863Z,6.17
2017-09-30T20:45:48.409Z,6.10
2017-09-30T20:48:15.865Z,7.77
2017-09-30T20:50:43.318Z,5.40
2017-09-30T20:53:10.779Z,6.67
2017-09-30T20:55:38.233Z,6.60
2017-09-30T20:58:05.694Z,6.53
2017-09-30T21:00:33.150Z,5.57
2017-09-30T21:03:00.597Z,5.90
2017-09-30T21:05:28.057Z,6.93
2017-09-30T21:07:55.513Z,5.83
2017-09-30T21:10:22.982Z,11.57
2017-09-30T21:12:50.438Z,6.17
2017-09-30T21:15:17.902Z,5.07
2017-09-30T21:17:45.341Z,5.07
2017-09-30T21:20:12.803Z,5.90
2017-09-30T21:22:40.257Z,5.47
2017-09-30T21:25:07.819Z,5.53
2017-09-30T21:27:35.269Z,5.73
2017-09-30T21:30:02.843Z,6.57
2017-09-30T21:32:30.296Z,5.77
2017-09-30T21:34:57.767Z,6.20
2017-09-30T21:37:26.095Z,6.17
2017-09-30T21:39:53.555Z,5.73
2017-09-30T21:42:21.023Z,6.37
2017-09-30T21:44:48.490Z,6.17
2017-09-30T21:47:15.955Z,5.20
2017-09-30T21:49:43.517Z,6.30
2017-09-30T21:52:10.973Z,6.20
2017-09-30T21:54:38.416Z,5.60
2017-09-30T21:57:05.883Z,5.77
2017-09-30T22:02:35.425Z,7.03
2017-09-30T22:05:02.871Z,6.67
2017-09-30T22:07:31.133Z,6.03
2017-09-30T22:09:58.697Z,6.50
2017-09-30T22:12:26.174Z,7.63
2017-09-30T22:14:53.630Z,7.53
2017-09-30T22:17:21.859Z,7.97
2017-09-30T22:19:49.309Z,7.20
2017-09-30T22:22:16.794Z,7.90
2017-09-30T22:24:44.250Z,8.93
2017-09-30T22:27:11.710Z,9.50
2017-09-30T22:29:39.167Z,9.40
2017-09-30T22:32:06.618Z,8.43
2017-09-30T22:34:34.073Z,7.20
2017-09-30T22:37:01.525Z,7.40
2017-09-30T22:39:28.993Z,7.20
2017-09-30T22:41:56.457Z,6.00
2017-09-30T22:44:23.915Z,7.33
2017-09-30T22:46:51.373Z,9.33
2017-09-30T22:49:19.601Z,7.40
2017-09-30T22:51:47.165Z,7.80
2017-09-30T22:54:14.616Z,8.30
2017-09-30T22:56:42.072Z,6.47
2017-09-30T22:59:09.530Z,6.70
2017-09-30T23:01:36.993Z,6.93
2017-09-30T23:04:04.445Z,6.97
2017-09-30T23:06:31.899Z,7.20
2017-09-30T23:08:59.363Z,7.70
2017-09-30T23:11:26.818Z,6.83
2017-09-30T23:13:54.306Z,6.80
2017-09-30T23:16:21.754Z,7.03
2017-09-30T23:18:49.216Z,6.10
2017-09-30T23:21:16.681Z,6.70
2017-09-30T23:23:44.151Z,6.83
2017-09-30T23:26:11.601Z,7.20
2017-09-30T23:28:39.054Z,6.90
2017-09-30T23:31:06.597Z,7.13
2017-09-30T23:33:34.041Z,8.03
2017-09-30T23:36:01.505Z,7.27
2017-09-30T23:38:28.957Z,7.83
2017-09-30T23:40:56.529Z,6.97
2017-09-30T23:43:23.983Z,8.07
2017-09-30T23:45:51.443Z,7.43
2017-09-30T23:48:18.885Z,5.27
2017-09-30T23:50:46.345Z,3.97
2017-09-30T23:53:13.799Z,3.13
2017-09-30T23:55:41.264Z,3.00
2017-09-30T23:58:08.721Z,3.10
